createdAt,value
2023-03-12T00:00:04.193Z,-5.77
2023-03-12T00:01:13.873Z,-5.81
2023-03-12T00:02:19.121Z,-5.87
2023-03-12T00:03:27.360Z,-5.87
2023-03-12T00:04:32.739Z,-5.91
2023-03-12T00:05:38.758Z,-5.92
2023-03-12T00:06:43.789Z,-5.91
2023-03-12T00:07:46.425Z,-5.95
2023-03-12T00:08:53.880Z,-5.98
2023-03-12T00:09:59.847Z,-5.99
2023-03-12T00:11:09.304Z,-6.02
2023-03-12T00:12:18.184Z,-6.00
2023-03-12T00:13:20.797Z,-6.03
2023-03-12T00:14:25.625Z,-6.05
2023-03-12T00:15:28.247Z,-6.09
2023-03-12T00:16:33.303Z,-6.11
2023-03-12T00:17:35.823Z,-6.11
2023-03-12T00:18:46.936Z,-6.11
2023-03-12T00:19:52.402Z,-6.10
2023-03-12T00:20:57.808Z,-6.10
2023-03-12T00:21:59.904Z,-6.10
2023-03-12T00:23:06.115Z,-6.09
2023-03-12T00:24:08.880Z,-6.07
2023-03-12T00:25:19.644Z,-6.06
2023-03-12T00:26:23.147Z,-6.07
2023-03-12T00:27:31.272Z,-6.05
2023-03-12T00:28:36.865Z,-6.07
2023-03-12T00:29:39.296Z,-6.06
2023-03-12T00:30:44.454Z,-6.09
2023-03-12T00:31:49.247Z,-6.10
2023-03-12T00:32:54.708Z,-6.11
2023-03-12T00:33:58.412Z,-6.12
2023-03-12T00:35:03.818Z,-6.13
2023-03-12T00:36:07.475Z,-6.11
2023-03-12T00:37:12.607Z,-6.07
2023-03-12T00:38:14.950Z,-6.09
2023-03-12T00:39:21.480Z,-6.03
2023-03-12T00:40:23.665Z,-6.03
2023-03-12T00:41:30.574Z,-6.02
2023-03-12T00:42:35.324Z,-6.01
2023-03-12T00:43:40.481Z,-6.00
2023-03-12T00:44:43.734Z,-5.97
2023-03-12T00:45:48.583Z,-5.95
2023-03-12T00:46:50.855Z,-5.93
2023-03-12T00:47:55.982Z,-5.93
2023-03-12T00:48:58.091Z,-5.96
2023-03-12T00:50:03.012Z,-5.97
2023-03-12T00:51:05.775Z,-5.97
2023-03-12T00:52:10.910Z,-5.94
2023-03-12T00:53:13.166Z,-5.93
2023-03-12T00:54:18.248Z,-5.93
2023-03-12T00:55:22.144Z,-5.95
2023-03-12T00:56:27.185Z,-5.95
2023-03-12T00:57:29.365Z,-5.97
2023-03-12T00:58:37.070Z,-6.00
2023-03-12T00:59:40.628Z,-6.04
2023-03-12T01:00:45.462Z,-6.07
2023-03-12T01:01:50.307Z,-6.12
2023-03-12T01:02:55.816Z,-6.15
2023-03-12T01:04:02.525Z,-6.17
2023-03-12T01:05:08.577Z,-6.21
2023-03-12T01:06:10.794Z,-6.24
2023-03-12T01:07:18.951Z,-6.25
2023-03-12T01:08:22.209Z,-6.26
2023-03-12T01:09:28.042Z,-6.27
2023-03-12T01:10:30.883Z,-6.28
2023-03-12T01:11:36.906Z,-6.28
2023-03-12T01:12:39.004Z,-6.33
2023-03-12T01:13:47.091Z,-6.34
2023-03-12T01:14:49.352Z,-6.34
2023-03-12T01:15:55.816Z,-6.36
2023-03-12T01:16:58.015Z,-6.39
2023-03-12T01:18:03.180Z,-6.39
2023-03-12T01:19:05.429Z,-6.39
2023-03-12T01:20:12.730Z,-6.28
2023-03-12T01:21:16.386Z,-6.27
2023-03-12T01:22:21.459Z,-6.24
2023-03-12T01:23:24.114Z,-6.25
2023-03-12T01:24:29.158Z,-6.25
2023-03-12T01:25:34.313Z,-6.10
2023-03-12T01:26:39.097Z,-6.07
2023-03-12T01:27:43.300Z,-6.12
2023-03-12T01:28:57.389Z,-6.14
2023-03-12T01:29:59.690Z,-6.16
2023-03-12T01:31:10.099Z,-6.14
2023-03-12T01:32:12.220Z,-6.13
2023-03-12T01:33:17.157Z,-6.16
2023-03-12T01:34:19.276Z,-6.17
2023-03-12T01:35:24.120Z,-6.10
2023-03-12T01:36:27.997Z,-6.13
2023-03-12T01:37:33.165Z,-6.11
2023-03-12T01:38:35.268Z,-6.08
2023-03-12T01:39:40.706Z,-6.03
2023-03-12T01:40:43.948Z,-5.92
2023-03-12T01:41:49.004Z,-5.91
2023-03-12T01:42:52.989Z,-5.86
2023-03-12T01:44:01.781Z,-5.88
2023-03-12T01:45:07.173Z,-5.90
2023-03-12T01:46:30.125Z,-5.91
2023-03-12T01:47:32.576Z,-5.93
2023-03-12T01:48:42.803Z,-5.96
2023-03-12T01:49:46.013Z,-5.98
2023-03-12T01:50:51.473Z,-5.99
2023-03-12T01:52:00.216Z,-5.98
2023-03-12T01:53:05.156Z,-5.97
2023-03-12T01:54:16.554Z,-5.97
2023-03-12T01:55:18.841Z,-5.95
2023-03-12T01:56:24.947Z,-5.89
2023-03-12T01:57:34.787Z,-5.86
2023-03-12T01:58:40.745Z,-5.80
2023-03-12T01:59:52.273Z,-5.76
2023-03-12T02:00:54.997Z,-5.69
2023-03-12T02:02:00.191Z,-5.62
2023-03-12T02:03:07.489Z,-5.56
2023-03-12T02:05:43.752Z,-5.38
2023-03-12T02:06:54.400Z,-5.33
2023-03-12T02:07:57.574Z,-5.27
2023-03-12T02:09:06.390Z,-5.21
2023-03-12T02:10:09.824Z,-5.17
2023-03-12T02:11:14.719Z,-5.13
2023-03-12T02:12:20.534Z,-5.08
2023-03-12T02:13:22.718Z,-5.06
2023-03-12T02:14:28.005Z,-5.04
2023-03-12T02:15:34.379Z,-4.99
2023-03-12T02:16:39.146Z,-4.97
2023-03-12T02:17:41.702Z,-4.96
2023-03-12T02:18:47.615Z,-4.91
2023-03-12T02:19:59.089Z,-4.87
2023-03-12T02:21:13.789Z,-4.85
2023-03-12T02:22:20.147Z,-4.82
2023-03-12T02:23:31.149Z,-4.82
2023-03-12T02:24:41.449Z,-4.80
2023-03-12T02:25:49.950Z,-4.79
2023-03-12T02:26:55.365Z,-4.80
2023-03-12T02:27:59.057Z,-4.76
2023-03-12T02:29:05.521Z,-4.74
2023-03-12T02:30:09.907Z,-4.70
2023-03-12T02:31:19.775Z,-4.72
2023-03-12T02:32:25.533Z,-4.70
2023-03-12T02:33:31.115Z,-4.69
2023-03-12T02:34:33.232Z,-4.70
2023-03-12T02:35:39.848Z,-4.70
2023-03-12T02:36:42.160Z,-4.71
2023-03-12T02:37:51.599Z,-4.72
2023-03-12T02:38:54.515Z,-4.70
2023-03-12T02:40:03.731Z,-4.72
2023-03-12T02:41:17.212Z,-4.71
2023-03-12T02:42:23.662Z,-4.67
2023-03-12T02:43:26.489Z,-4.66
2023-03-12T02:44:37.695Z,-4.64
2023-03-12T02:45:40.098Z,-4.62
2023-03-12T02:46:47.798Z,-4.59
2023-03-12T02:47:50.593Z,-4.56
2023-03-12T02:48:59.401Z,-4.51
2023-03-12T02:50:01.637Z,-4.48
2023-03-12T02:51:09.250Z,-4.43
2023-03-12T02:52:14.141Z,-4.41
2023-03-12T02:53:16.598Z,-4.37
2023-03-12T02:54:24.191Z,-4.36
2023-03-12T02:55:26.693Z,-4.34
2023-03-12T02:56:37.220Z,-4.33
2023-03-12T02:57:40.541Z,-4.33
2023-03-12T02:58:46.640Z,-4.36
2023-03-12T02:59:50.505Z,-4.36
2023-03-12T03:00:55.946Z,-4.38
2023-03-12T03:02:00.953Z,-4.38
2023-03-12T03:03:08.626Z,-4.39
2023-03-12T03:04:12.847Z,-4.41
2023-03-12T03:05:20.680Z,-4.42
2023-03-12T03:06:29.227Z,-4.44
2023-03-12T03:07:36.934Z,-4.45
2023-03-12T03:08:43.876Z,-4.45
2023-03-12T03:09:52.201Z,-4.44
2023-03-12T03:10:57.580Z,-4.42
2023-03-12T03:12:32.965Z,-4.40
2023-03-12T03:13:57.087Z,-4.39
2023-03-12T03:15:04.558Z,-4.37
2023-03-12T03:16:09.670Z,-4.35
2023-03-12T03:17:14.514Z,-4.34
2023-03-12T03:18:17.105Z,-4.32
2023-03-12T03:19:22.517Z,-4.31
2023-03-12T03:20:27.950Z,-4.31
2023-03-12T03:21:33.726Z,-4.30
2023-03-12T03:22:36.459Z,-4.30
2023-03-12T03:23:43.749Z,-4.28
2023-03-12T03:24:46.678Z,-4.25
2023-03-12T03:25:53.261Z,-4.24
2023-03-12T03:26:55.371Z,-4.23
2023-03-12T03:28:03.272Z,-4.22
2023-03-12T03:29:06.644Z,-4.19
2023-03-12T03:30:15.532Z,-4.18
2023-03-12T03:31:18.590Z,-4.17
2023-03-12T03:32:23.721Z,-4.15
2023-03-12T03:33:26.390Z,-4.13
2023-03-12T03:34:34.184Z,-4.12
2023-03-12T03:35:38.635Z,-4.10
2023-03-12T03:36:43.761Z,-4.09
2023-03-12T03:37:47.279Z,-4.08
2023-03-12T03:38:52.811Z,-4.09
2023-03-12T03:39:59.909Z,-4.09
2023-03-12T03:41:05.612Z,-4.06
2023-03-12T03:42:08.419Z,-4.06
2023-03-12T03:43:19.086Z,-4.04
2023-03-12T03:44:23.231Z,-4.04
2023-03-12T03:45:31.273Z,-4.02
2023-03-12T03:46:35.659Z,-4.01
2023-03-12T03:47:42.655Z,-3.99
2023-03-12T03:48:44.905Z,-3.96
2023-03-12T03:49:49.956Z,-3.94
2023-03-12T03:50:54.108Z,-3.93
2023-03-12T03:51:58.940Z,-3.90
2023-03-12T03:53:01.189Z,-3.90
2023-03-12T03:54:07.888Z,-3.90
2023-03-12T03:55:10.564Z,-3.91
2023-03-12T03:56:18.033Z,-3.90
2023-03-12T03:57:20.535Z,-3.90
2023-03-12T03:58:28.325Z,-3.89
2023-03-12T03:59:30.653Z,-3.90
2023-03-12T04:00:36.446Z,-3.89
2023-03-12T04:01:39.015Z,-3.89
2023-03-12T04:02:44.220Z,-3.89
2023-03-12T04:03:46.392Z,-3.90
2023-03-12T04:04:57.206Z,-3.89
2023-03-12T04:06:01.608Z,-3.89
2023-03-12T04:07:06.668Z,-3.89
2023-03-12T04:08:08.886Z,-3.89
2023-03-12T04:09:13.916Z,-3.90
2023-03-12T04:10:16.116Z,-3.90
2023-03-12T04:11:25.709Z,-3.91
2023-03-12T04:12:28.985Z,-3.93
2023-03-12T04:13:39.157Z,-3.95
2023-03-12T04:14:43.916Z,-3.95
2023-03-12T04:15:53.970Z,-3.95
2023-03-12T04:16:58.820Z,-3.96
2023-03-12T04:18:03.934Z,-3.95
2023-03-12T04:19:06.306Z,-3.94
2023-03-12T04:20:15.587Z,-3.93
2023-03-12T04:21:19.507Z,-3.92
2023-03-12T04:22:25.826Z,-3.90
2023-03-12T04:23:29.512Z,-3.86
2023-03-12T04:24:36.778Z,-3.84
2023-03-12T04:25:40.010Z,-3.81
2023-03-12T04:26:48.144Z,-3.79
2023-03-12T04:27:52.241Z,-3.76
2023-03-12T04:28:59.962Z,-3.71
2023-03-12T04:30:06.018Z,-3.70
2023-03-12T04:31:13.032Z,-3.68
2023-03-12T04:32:15.691Z,-3.67
2023-03-12T04:33:28.023Z,-3.65
2023-03-12T04:34:33.132Z,-3.64
2023-03-12T04:35:36.071Z,-3.62
2023-03-12T04:36:41.431Z,-3.60
2023-03-12T04:37:47.862Z,-3.60
2023-03-12T04:38:51.555Z,-3.58
2023-03-12T04:39:56.444Z,-3.57
2023-03-12T04:40:59.592Z,-3.55
2023-03-12T04:42:04.967Z,-3.52
2023-03-12T04:43:08.401Z,-3.49
2023-03-12T04:44:17.762Z,-3.47
2023-03-12T04:45:23.537Z,-3.45
2023-03-12T04:46:30.374Z,-3.43
2023-03-12T04:47:33.792Z,-3.41
2023-03-12T04:48:39.819Z,-3.40
2023-03-12T04:49:44.948Z,-3.37
2023-03-12T04:50:52.124Z,-3.31
2023-03-12T04:51:54.856Z,-3.30
2023-03-12T04:53:01.986Z,-3.29
2023-03-12T04:54:05.841Z,-3.26
2023-03-12T04:55:12.167Z,-3.25
2023-03-12T04:56:14.443Z,-3.22
2023-03-12T04:57:20.469Z,-3.22
2023-03-12T04:58:23.480Z,-3.20
2023-03-12T04:59:31.210Z,-3.17
2023-03-12T05:00:33.511Z,-3.16
2023-03-12T05:01:40.531Z,-3.14
2023-03-12T05:02:42.993Z,-3.11
2023-03-12T05:03:48.361Z,-3.09
2023-03-12T05:04:58.939Z,-3.05
2023-03-12T05:06:02.252Z,-3.01
2023-03-12T05:07:08.436Z,-2.99
2023-03-12T05:08:12.166Z,-2.97
2023-03-12T05:09:17.711Z,-2.94
2023-03-12T05:10:23.714Z,-2.92
2023-03-12T05:11:29.194Z,-2.89
2023-03-12T05:12:34.114Z,-2.88
2023-03-12T05:13:38.514Z,-2.86
2023-03-12T05:14:46.125Z,-2.86
2023-03-12T05:15:51.117Z,-2.82
2023-03-12T05:16:56.069Z,-2.79
2023-03-12T05:17:58.291Z,-2.78
2023-03-12T05:19:04.669Z,-2.75
2023-03-12T05:20:07.277Z,-2.75
2023-03-12T05:21:15.274Z,-2.73
2023-03-12T05:22:18.464Z,-2.73
2023-03-12T05:23:23.373Z,-2.72
2023-03-12T05:24:28.711Z,-2.70
2023-03-12T05:25:30.914Z,-2.70
2023-03-12T05:26:37.120Z,-2.68
2023-03-12T05:27:39.381Z,-2.66
2023-03-12T05:28:44.177Z,-2.64
2023-03-12T05:29:50.952Z,-2.64
2023-03-12T05:30:55.873Z,-2.62
2023-03-12T05:32:01.125Z,-2.62
2023-03-12T05:33:03.512Z,-2.58
2023-03-12T05:34:08.699Z,-2.56
2023-03-12T05:35:11.137Z,-2.53
2023-03-12T05:36:17.877Z,-2.52
2023-03-12T05:37:24.143Z,-2.50
2023-03-12T05:38:29.263Z,-2.47
2023-03-12T05:39:31.544Z,-2.45
2023-03-12T05:40:36.363Z,-2.43
2023-03-12T05:41:42.803Z,-2.42
2023-03-12T05:42:47.605Z,-2.40
2023-03-12T05:43:56.628Z,-2.40
2023-03-12T05:45:04.629Z,-2.38
2023-03-12T05:46:08.472Z,-2.38
2023-03-12T05:47:13.589Z,-2.34
2023-03-12T05:48:16.315Z,-2.34
2023-03-12T05:49:21.864Z,-2.33
2023-03-12T05:50:26.482Z,-2.29
2023-03-12T05:51:31.394Z,-2.25
2023-03-12T05:52:33.850Z,-2.22
2023-03-12T05:53:38.800Z,-2.19
2023-03-12T05:54:44.040Z,-2.15
2023-03-12T05:55:46.459Z,-2.13
2023-03-12T05:56:51.605Z,-2.08
2023-03-12T05:57:53.866Z,-2.07
2023-03-12T05:59:01.322Z,-2.06
2023-03-12T06:00:08.509Z,-2.03
2023-03-12T06:01:20.279Z,-2.05
2023-03-12T06:02:22.913Z,-2.02
2023-03-12T06:03:28.165Z,-2.01
2023-03-12T06:04:30.873Z,-2.03
2023-03-12T06:05:38.009Z,-2.03
2023-03-12T06:06:43.567Z,-2.03
2023-03-12T06:07:45.938Z,-2.04
2023-03-12T06:08:53.616Z,-2.03
2023-03-12T06:09:57.742Z,-2.04
2023-03-12T06:11:03.248Z,-2.06
2023-03-12T06:12:08.218Z,-2.03
2023-03-12T06:13:13.112Z,-2.03
2023-03-12T06:14:15.500Z,-2.00
2023-03-12T06:15:23.142Z,-1.98
2023-03-12T06:16:27.560Z,-1.96
2023-03-12T06:17:35.134Z,-1.92
2023-03-12T06:18:37.716Z,-1.90
2023-03-12T06:19:42.627Z,-1.87
2023-03-12T06:20:47.045Z,-1.83
2023-03-12T06:21:51.928Z,-1.79
2023-03-12T06:22:54.103Z,-1.75
2023-03-12T06:23:59.889Z,-1.72
2023-03-12T06:25:05.115Z,-1.67
2023-03-12T06:26:08.492Z,-1.63
2023-03-12T06:27:13.595Z,-1.59
2023-03-12T06:28:15.859Z,-1.55
2023-03-12T06:29:20.975Z,-1.49
2023-03-12T06:30:30.594Z,-1.43
2023-03-12T06:31:35.913Z,-1.40
2023-03-12T06:33:11.410Z,-1.35
2023-03-12T06:34:13.643Z,-1.26
2023-03-12T06:35:21.196Z,-1.20
2023-03-12T06:36:25.947Z,-1.15
2023-03-12T06:37:31.164Z,-1.08
2023-03-12T06:38:33.924Z,-1.02
2023-03-12T06:39:38.821Z,-0.97
2023-03-12T06:40:43.178Z,-0.88
2023-03-12T06:41:48.336Z,-0.81
2023-03-12T06:42:50.556Z,-0.77
2023-03-12T06:43:55.836Z,-0.70
2023-03-12T06:44:59.289Z,-0.63
2023-03-12T06:46:08.963Z,-0.57
2023-03-12T06:47:11.524Z,-0.49
2023-03-12T06:48:16.589Z,-0.44
2023-03-12T06:49:21.512Z,-0.38
2023-03-12T06:50:24.714Z,-0.33
2023-03-12T06:51:29.501Z,-0.32
2023-03-12T06:52:31.708Z,-0.44
2023-03-12T06:53:37.200Z,-0.35
2023-03-12T06:54:39.681Z,-0.30
2023-03-12T06:55:46.122Z,-0.25
2023-03-12T06:56:48.342Z,-0.21
2023-03-12T06:57:56.001Z,-0.12
2023-03-12T06:59:00.990Z,-0.03
2023-03-12T07:00:03.460Z,0.08
2023-03-12T07:01:11.641Z,0.13
2023-03-12T07:02:18.023Z,0.20
2023-03-12T07:03:20.828Z,0.28
2023-03-12T07:04:25.922Z,0.37
2023-03-12T07:05:30.170Z,0.44
2023-03-12T07:06:35.377Z,0.40
2023-03-12T07:07:39.203Z,0.27
2023-03-12T07:08:44.268Z,0.24
2023-03-12T07:09:49.083Z,0.27
2023-03-12T07:10:54.002Z,0.32
2023-03-12T07:11:58.985Z,0.27
2023-03-12T07:13:01.455Z,0.22
2023-03-12T07:14:06.337Z,0.24
2023-03-12T07:15:16.474Z,0.25
2023-03-12T07:16:24.427Z,0.32
2023-03-12T07:17:30.540Z,0.34
2023-03-12T07:18:32.870Z,0.33
2023-03-12T07:19:38.100Z,0.24
2023-03-12T07:20:43.265Z,0.16
2023-03-12T07:21:48.188Z,0.29
2023-03-12T07:22:50.576Z,0.27
2023-03-12T07:23:56.255Z,0.26
2023-03-12T07:25:05.021Z,0.31
2023-03-12T07:26:07.222Z,0.21
2023-03-12T07:27:12.822Z,0.28
2023-03-12T07:28:16.145Z,0.21
2023-03-12T07:29:20.993Z,0.17
2023-03-12T07:30:23.782Z,0.18
2023-03-12T07:31:35.054Z,0.13
2023-03-12T07:32:38.356Z,0.19
2023-03-12T07:33:44.852Z,0.19
2023-03-12T07:34:49.466Z,0.14
2023-03-12T07:35:57.024Z,0.23
2023-03-12T07:37:04.352Z,0.27
2023-03-12T07:38:07.091Z,0.26
2023-03-12T07:39:12.321Z,0.26
2023-03-12T07:40:17.679Z,0.30
2023-03-12T07:41:19.935Z,0.27
2023-03-12T07:42:28.396Z,0.18
2023-03-12T07:43:30.571Z,0.26
2023-03-12T07:44:37.036Z,0.21
2023-03-12T07:45:40.155Z,0.26
2023-03-12T07:46:48.395Z,0.27
2023-03-12T07:47:54.999Z,0.27
2023-03-12T07:49:00.295Z,0.41
2023-03-12T07:50:03.586Z,0.43
2023-03-12T07:51:10.343Z,0.37
2023-03-12T07:52:12.543Z,0.53
2023-03-12T07:53:18.242Z,0.52
2023-03-12T07:54:20.594Z,0.37
2023-03-12T07:55:28.489Z,0.24
2023-03-12T07:56:36.278Z,0.32
2023-03-12T07:57:39.150Z,0.29
2023-03-12T07:58:43.988Z,0.21
2023-03-12T07:59:48.110Z,0.33
2023-03-12T08:00:54.242Z,0.41
2023-03-12T08:02:02.337Z,0.55
2023-03-12T08:03:05.287Z,0.70
2023-03-12T08:04:10.417Z,0.85
2023-03-12T08:05:12.786Z,0.97
2023-03-12T08:06:18.483Z,1.08
2023-03-12T08:07:32.735Z,1.20
2023-03-12T08:08:42.954Z,1.25
2023-03-12T08:09:52.268Z,1.30
2023-03-12T08:11:01.106Z,1.17
2023-03-12T08:12:06.314Z,1.09
2023-03-12T08:13:08.976Z,1.04
2023-03-12T08:14:14.276Z,1.16
2023-03-12T08:15:16.829Z,1.16
2023-03-12T08:16:21.859Z,1.05
2023-03-12T08:17:27.159Z,0.95
2023-03-12T08:18:32.948Z,1.02
2023-03-12T08:19:35.145Z,1.13
2023-03-12T08:20:40.155Z,1.32
2023-03-12T08:21:42.315Z,1.46
2023-03-12T08:22:48.603Z,1.70
2023-03-12T08:23:50.885Z,1.86
2023-03-12T08:24:55.677Z,1.98
2023-03-12T08:26:01.949Z,1.84
2023-03-12T08:27:06.878Z,1.87
2023-03-12T08:28:12.140Z,1.83
2023-03-12T08:29:15.289Z,1.66
2023-03-12T08:30:20.726Z,1.62
2023-03-12T08:31:23.267Z,1.65
2023-03-12T08:32:35.545Z,1.51
2023-03-12T08:33:41.386Z,1.46
2023-03-12T08:35:05.956Z,1.42
2023-03-12T08:36:09.808Z,1.33
2023-03-12T08:37:15.778Z,1.20
2023-03-12T08:38:21.424Z,1.23
2023-03-12T08:39:23.661Z,1.32
2023-03-12T08:40:29.609Z,1.47
2023-03-12T08:41:31.786Z,1.47
2023-03-12T08:42:37.164Z,1.39
2023-03-12T08:43:39.264Z,1.22
2023-03-12T08:44:44.041Z,1.14
2023-03-12T08:45:46.357Z,1.20
2023-03-12T08:46:51.289Z,1.27
2023-03-12T08:47:58.719Z,1.38
2023-03-12T08:49:03.743Z,1.38
2023-03-12T08:50:07.793Z,1.35
2023-03-12T08:51:16.809Z,1.46
2023-03-12T08:52:19.407Z,1.59
2023-03-12T08:53:24.279Z,1.52
2023-03-12T08:54:29.184Z,1.62
2023-03-12T08:55:31.411Z,1.56
2023-03-12T08:56:37.344Z,1.52
2023-03-12T08:57:40.383Z,1.46
2023-03-12T08:58:45.433Z,1.54
2023-03-12T08:59:48.051Z,1.51
2023-03-12T09:00:53.329Z,1.56
2023-03-12T09:01:55.483Z,1.67
2023-03-12T09:03:04.487Z,1.69
2023-03-12T09:04:06.906Z,1.75
2023-03-12T09:05:12.348Z,1.75
2023-03-12T09:06:17.055Z,1.82
2023-03-12T09:07:22.875Z,1.64
2023-03-12T09:08:28.063Z,1.66
2023-03-12T09:09:30.302Z,1.61
2023-03-12T09:10:35.103Z,1.59
2023-03-12T09:11:41.300Z,1.60
2023-03-12T09:12:46.398Z,1.77
2023-03-12T09:14:16.925Z,1.69
2023-03-12T09:15:13.377Z,1.81
2023-03-12T09:16:21.278Z,1.90
2023-03-12T09:17:26.770Z,1.75
2023-03-12T09:18:35.417Z,1.79
2023-03-12T09:19:37.835Z,1.83
2023-03-12T09:20:43.004Z,1.95
2023-03-12T09:21:48.099Z,2.20
2023-03-12T09:22:53.383Z,2.21
2023-03-12T09:23:58.196Z,2.25
2023-03-12T09:25:03.028Z,2.35
2023-03-12T09:26:10.605Z,2.32
2023-03-12T09:27:12.848Z,2.55
2023-03-12T09:28:18.008Z,2.44
2023-03-12T09:29:23.674Z,2.61
2023-03-12T09:30:30.382Z,2.52
2023-03-12T09:31:35.968Z,2.45
2023-03-12T09:32:41.226Z,2.43
2023-03-12T09:33:46.028Z,2.57
2023-03-12T09:34:53.657Z,2.58
2023-03-12T09:36:02.436Z,2.52
2023-03-12T09:37:04.896Z,2.57
2023-03-12T09:38:10.024Z,2.67
2023-03-12T09:39:15.950Z,2.66
2023-03-12T09:40:24.480Z,2.81
2023-03-12T09:41:30.366Z,2.84
2023-03-12T09:42:47.672Z,2.98
2023-03-12T09:43:56.420Z,3.09
2023-03-12T09:45:06.158Z,3.09
2023-03-12T09:46:15.761Z,3.14
2023-03-12T09:47:30.067Z,3.19
2023-03-12T09:48:37.044Z,3.18
2023-03-12T09:49:50.157Z,3.17
2023-03-12T09:50:53.962Z,3.34
2023-03-12T09:52:01.826Z,3.17
2023-03-12T09:53:09.782Z,3.02
2023-03-12T09:54:35.617Z,3.00
2023-03-12T09:58:52.214Z,2.86
2023-03-12T10:00:19.137Z,2.92
2023-03-12T10:01:48.153Z,2.82
2023-03-12T10:03:25.480Z,2.99
2023-03-12T10:04:58.538Z,3.05
2023-03-12T10:06:11.837Z,3.18
2023-03-12T10:07:40.265Z,3.09
2023-03-12T10:09:00.580Z,2.86
2023-03-12T10:10:25.690Z,3.03
2023-03-12T10:11:42.415Z,2.89
2023-03-12T10:13:05.060Z,2.88
2023-03-12T10:14:24.185Z,2.76
2023-03-12T10:15:45.769Z,2.75
2023-03-12T10:17:13.918Z,2.91
2023-03-12T10:18:49.396Z,3.02
2023-03-12T10:20:26.189Z,2.95
2023-03-12T10:25:11.644Z,3.18
2023-03-12T10:26:32.948Z,3.16
2023-03-12T10:28:10.939Z,3.03
2023-03-12T10:29:31.985Z,3.11
2023-03-12T10:30:39.326Z,3.12
2023-03-12T10:31:59.106Z,3.26
2023-03-12T10:33:07.998Z,3.28
2023-03-12T10:34:20.305Z,3.42
2023-03-12T10:35:28.396Z,3.42
2023-03-12T10:36:40.209Z,3.33
2023-03-12T10:37:47.685Z,3.40
2023-03-12T10:38:52.795Z,3.39
2023-03-12T10:40:00.682Z,3.44
2023-03-12T10:41:20.668Z,3.63
2023-03-12T10:42:24.959Z,3.46
2023-03-12T10:43:30.292Z,3.42
2023-03-12T10:44:41.033Z,3.39
2023-03-12T10:46:02.186Z,3.52
2023-03-12T10:47:14.763Z,3.53
2023-03-12T10:48:23.976Z,3.53
2023-03-12T10:49:32.103Z,3.59
2023-03-12T10:50:37.967Z,3.71
2023-03-12T10:51:56.453Z,3.72
2023-03-12T10:53:17.848Z,3.78
2023-03-12T10:54:29.707Z,3.87
2023-03-12T10:55:34.878Z,3.87
2023-03-12T10:56:49.723Z,3.90
2023-03-12T10:57:55.276Z,3.99
2023-03-12T10:59:00.594Z,4.04
2023-03-12T11:00:12.879Z,4.24
2023-03-12T11:01:24.421Z,4.48
2023-03-12T11:02:33.960Z,4.61
2023-03-12T11:03:38.755Z,4.37
2023-03-12T11:04:40.869Z,4.69
2023-03-12T11:05:52.008Z,4.65
2023-03-12T11:07:16.882Z,4.38
2023-03-12T11:08:27.231Z,4.38
2023-03-12T11:09:35.098Z,4.41
2023-03-12T11:10:49.263Z,4.36
2023-03-12T11:11:51.567Z,4.46
2023-03-12T11:13:03.259Z,4.46
2023-03-12T11:14:16.056Z,4.62
2023-03-12T11:15:26.613Z,4.68
2023-03-12T11:16:32.341Z,4.66
2023-03-12T11:17:34.608Z,4.68
2023-03-12T11:18:41.667Z,4.65
2023-03-12T11:19:43.845Z,4.78
2023-03-12T11:20:49.280Z,4.84
2023-03-12T11:21:59.713Z,4.96
2023-03-12T11:23:15.826Z,4.90
2023-03-12T11:24:23.080Z,4.79
2023-03-12T11:25:29.754Z,4.99
2023-03-12T11:26:36.916Z,4.83
2023-03-12T11:27:43.179Z,4.65
2023-03-12T11:28:55.167Z,4.76
2023-03-12T11:29:57.730Z,4.85
2023-03-12T11:31:11.081Z,4.87
2023-03-12T11:32:43.222Z,4.70
2023-03-12T11:34:12.910Z,4.80
2023-03-12T11:35:47.007Z,4.82
2023-03-12T11:37:00.691Z,4.88
2023-03-12T11:38:27.945Z,5.02
2023-03-12T11:39:54.720Z,4.93
2023-03-12T11:41:15.246Z,4.93
2023-03-12T11:42:34.413Z,4.83
2023-03-12T11:43:59.691Z,4.75
2023-03-12T11:45:14.514Z,4.79
2023-03-12T11:46:27.663Z,4.93
2023-03-12T11:47:44.940Z,4.91
2023-03-12T11:49:03.077Z,5.07
2023-03-12T11:50:24.381Z,5.22
2023-03-12T11:51:36.192Z,5.13
2023-03-12T11:52:58.005Z,5.12
2023-03-12T11:54:19.283Z,5.32
2023-03-12T11:55:47.032Z,5.55
2023-03-12T11:57:00.561Z,5.69
2023-03-12T11:58:21.299Z,5.89
2023-03-12T11:59:42.196Z,6.11
2023-03-12T12:00:53.431Z,5.99
2023-03-12T12:02:15.711Z,6.00
2023-03-12T12:03:57.161Z,6.09
2023-03-12T12:05:40.066Z,6.12
2023-03-12T12:07:01.046Z,6.08
2023-03-12T12:08:19.597Z,6.03
2023-03-12T12:09:31.288Z,6.24
2023-03-12T12:10:43.051Z,6.29
2023-03-12T12:12:05.748Z,6.38
2023-03-12T12:13:14.382Z,6.50
2023-03-12T12:14:32.134Z,6.61
2023-03-12T12:15:54.409Z,6.60
2023-03-12T12:17:08.563Z,6.59
2023-03-12T12:18:37.211Z,6.66
2023-03-12T12:19:59.121Z,6.93
2023-03-12T12:21:06.562Z,6.86
2023-03-12T12:22:26.216Z,6.97
2023-03-12T12:23:46.827Z,7.14
2023-03-12T12:25:21.384Z,7.22
2023-03-12T12:26:33.162Z,7.43
2023-03-12T12:27:47.781Z,7.67
2023-03-12T12:29:18.714Z,7.89
2023-03-12T12:30:30.897Z,8.23
2023-03-12T12:31:40.796Z,8.40
2023-03-12T12:33:06.840Z,8.49
2023-03-12T12:34:35.926Z,8.74
2023-03-12T12:35:43.215Z,8.81
2023-03-12T12:36:50.386Z,8.91
2023-03-12T12:37:59.293Z,8.64
2023-03-12T12:39:09.083Z,8.51
2023-03-12T12:40:24.100Z,8.32
2023-03-12T12:41:30.352Z,8.19
2023-03-12T12:42:50.774Z,8.29
2023-03-12T12:44:01.121Z,8.23
2023-03-12T12:45:08.820Z,8.20
2023-03-12T12:46:18.918Z,7.70
2023-03-12T12:47:30.494Z,7.37
2023-03-12T12:48:39.807Z,7.39
2023-03-12T12:49:47.225Z,7.24
2023-03-12T12:50:59.799Z,7.12
2023-03-12T12:52:06.902Z,6.94
2023-03-12T12:53:23.150Z,6.82
2023-03-12T12:54:37.624Z,6.76
2023-03-12T12:55:47.661Z,6.75
2023-03-12T12:57:04.169Z,6.76
2023-03-12T12:58:18.168Z,6.71
2023-03-12T12:59:37.197Z,6.75
2023-03-12T13:00:54.614Z,6.75
2023-03-12T13:01:59.621Z,6.66
2023-03-12T13:03:07.641Z,6.81
2023-03-12T13:04:19.039Z,6.87
2023-03-12T13:05:54.563Z,7.17
2023-03-12T13:07:09.521Z,7.43
2023-03-12T13:08:42.186Z,7.50
2023-03-12T13:09:50.732Z,7.78
2023-03-12T13:11:02.512Z,8.22
2023-03-12T13:12:23.338Z,8.53
2023-03-12T13:13:28.520Z,8.70
2023-03-12T13:14:45.620Z,8.89
2023-03-12T13:15:51.314Z,8.97
2023-03-12T13:17:08.995Z,8.62
2023-03-12T13:18:26.212Z,8.36
2023-03-12T13:19:32.375Z,8.36
2023-03-12T13:27:13.958Z,8.63
2023-03-12T13:29:12.628Z,8.71
2023-03-12T13:30:51.809Z,8.86
2023-03-12T13:31:58.422Z,8.84
2023-03-12T13:33:14.195Z,8.85
2023-03-12T13:34:49.575Z,8.54
2023-03-12T13:36:13.570Z,8.54
2023-03-12T13:37:41.367Z,8.53
2023-03-12T13:38:59.212Z,8.46
2023-03-12T13:40:06.053Z,8.69
2023-03-12T13:41:11.275Z,8.74
2023-03-12T13:42:38.784Z,8.82
2023-03-12T13:43:54.760Z,8.72
2023-03-12T13:45:14.168Z,8.59
2023-03-12T13:46:54.165Z,8.39
2023-03-12T13:48:09.679Z,8.39
2023-03-12T13:51:06.845Z,8.15
2023-03-12T13:52:25.994Z,8.23
2023-03-12T13:53:40.302Z,8.19
2023-03-12T13:54:48.881Z,8.30
2023-03-12T13:56:04.505Z,8.15
2023-03-12T13:57:16.306Z,8.18
2023-03-12T13:58:25.209Z,8.04
2023-03-12T13:59:29.774Z,7.85
2023-03-12T14:00:40.848Z,7.97
2023-03-12T14:01:51.164Z,7.94
2023-03-12T14:03:01.036Z,8.00
2023-03-12T14:04:10.517Z,8.02
2023-03-12T14:05:18.692Z,8.02
2023-03-12T14:06:23.179Z,7.99
2023-03-12T14:07:46.334Z,7.91
2023-03-12T14:09:03.698Z,7.93
2023-03-12T14:10:19.674Z,7.95
2023-03-12T14:11:41.039Z,8.03
2023-03-12T14:12:52.127Z,7.90
2023-03-12T14:14:28.891Z,7.82
2023-03-12T14:15:44.838Z,7.85
2023-03-12T14:16:52.658Z,8.02
2023-03-12T14:18:04.372Z,8.12
2023-03-12T14:19:07.017Z,8.21
2023-03-12T14:20:17.862Z,8.30
2023-03-12T14:21:22.138Z,8.15
2023-03-12T14:22:29.635Z,8.23
2023-03-12T14:23:37.267Z,8.54
2023-03-12T14:24:45.036Z,8.98
2023-03-12T14:25:51.434Z,9.01
2023-03-12T14:26:55.391Z,9.28
2023-03-12T14:28:01.132Z,9.57
2023-03-12T14:29:11.024Z,9.72
2023-03-12T14:30:23.566Z,9.53
2023-03-12T14:31:51.735Z,9.22
2023-03-12T14:34:26.508Z,9.18
2023-03-12T14:35:36.758Z,9.18
2023-03-12T14:36:45.791Z,9.33
2023-03-12T14:37:58.712Z,9.24
2023-03-12T14:39:17.404Z,9.08
2023-03-12T14:40:27.264Z,9.19
2023-03-12T14:41:35.677Z,9.11
2023-03-12T14:42:38.088Z,9.21
2023-03-12T14:43:45.921Z,9.21
2023-03-12T14:44:57.968Z,9.13
2023-03-12T14:46:06.821Z,9.16
2023-03-12T14:47:11.907Z,9.00
2023-03-12T14:48:24.421Z,8.92
2023-03-12T14:49:29.275Z,9.10
2023-03-12T14:50:42.180Z,8.85
2023-03-12T14:51:47.397Z,8.89
2023-03-12T14:52:49.516Z,8.73
2023-03-12T14:53:55.289Z,8.74
2023-03-12T14:54:59.680Z,8.70
2023-03-12T14:56:08.174Z,8.63
2023-03-12T14:57:19.349Z,8.57
2023-03-12T14:58:24.684Z,8.50
2023-03-12T14:59:31.594Z,8.52
2023-03-12T15:00:37.071Z,8.49
2023-03-12T15:01:42.061Z,8.50
2023-03-12T15:02:44.318Z,8.52
2023-03-12T15:03:55.532Z,8.54
2023-03-12T15:05:02.805Z,8.50
2023-03-12T15:06:15.529Z,8.63
2023-03-12T15:07:25.009Z,8.43
2023-03-12T15:08:27.555Z,8.55
2023-03-12T15:09:36.180Z,8.59
2023-03-12T15:10:42.257Z,8.43
2023-03-12T15:11:56.012Z,8.39
2023-03-12T15:13:06.776Z,8.42